Item Display Status Serial CT Sensor

Mooring Depth: 1 m

 

Deployed Sensor

  • Serial Number: 12976
  • NDBC Property Number: 39424
  • Start Date: 1/10/2021 (10:55:29 Z)
  • End Date: Currently Active
Water Temperature [°C]     6 entries per hour
Showing data from 9/15/2021 (03:20:00 Z) to 9/14/2021 (00:00:01 Z)
Previous Next [ Day | 3-Days | 7-Days ]
First Last
Prev [ Day | 3-Days | 7-Days ] Next
First Last

Start Time:     :
End Time:     :     
Time (in GMT) :00 :50 :40 :30 :20 :10
Previous Next [ Day | 3-Days | 7-Days ]
First Last
Prev [ Day | 3-Days | 7-Days ] Next
First Last


123 => good data
MM => data is determined as missing
-- => data not received/configured
Back to Top Back to Top
9/15/2021 04:00 to 3:10 -- -- -- -- 23.558 23.541
9/15/2021 03:00 to 2:10 23.533 23.529 23.524 23.523 23.520 23.522
9/15/2021 02:00 to 1:10 23.524 23.536 23.522 23.516 23.518 23.504
9/15/2021 01:00 to 0:10 23.501 23.509 23.496 23.486 23.485 23.482
9/15/2021 00:00 to 23:10 23.503 23.530 23.528 23.513 23.543 23.525
9/14/2021 23:00 to 22:10 23.554 23.510 23.530 23.581 23.632 23.589
9/14/2021 22:00 to 21:10 23.584 23.571 23.597 23.551 23.572 23.616
9/14/2021 21:00 to 20:10 23.554 23.620 23.538 23.565 23.573 23.517
9/14/2021 20:00 to 19:10 23.541 23.531 23.508 23.514 23.479 23.499
9/14/2021 19:00 to 18:10 23.496 23.452 23.425 23.427 23.411 23.429
9/14/2021 18:00 to 17:10 23.395 23.387 23.383 23.406 23.404 23.401
9/14/2021 17:00 to 16:10 23.407 23.405 23.405 23.398 23.406 23.414
9/14/2021 16:00 to 15:10 23.401 23.402 23.391 23.400 23.399 23.399
9/14/2021 15:00 to 14:10 23.393 23.372 23.356 23.358 23.359 23.360
9/14/2021 14:00 to 13:10 23.361 23.372 23.373 23.375 23.376 23.375
9/14/2021 13:00 to 12:10 23.376 23.382 23.379 23.386 23.392 23.411
9/14/2021 12:00 to 11:10 23.414 23.421 23.436 23.437 23.429 23.427
9/14/2021 11:00 to 10:10 23.430 23.424 23.427 23.420 23.419 23.406
9/14/2021 10:00 to 9:10 23.404 23.398 23.400 23.396 23.393 23.402
9/14/2021 09:00 to 8:10 23.405 23.410 23.410 23.412 23.426 23.428
9/14/2021 08:00 to 7:10 23.447 23.460 23.467 23.471 23.496 23.508
9/14/2021 07:00 to 6:10 23.520 23.531 23.533 23.542 23.534 23.536
9/14/2021 06:00 to 5:10 23.546 23.558 23.562 23.562 23.576 23.586
9/14/2021 05:00 to 4:10 23.595 23.593 23.592 23.584 23.576 23.560
9/14/2021 04:00 to 3:10 23.582 23.585 23.607 23.619 23.642 23.669
9/14/2021 03:00 to 2:10 23.610 23.629 23.660 23.682 23.637 23.624
9/14/2021 02:00 to 1:10 23.632 23.617 23.633 23.623 23.597 23.609
9/14/2021 01:00 to 0:10 23.651 23.667 23.651 23.671 23.648 23.642

 

 

 

Conductivity [S/m]     6 entries per hour
Showing data from 9/15/2021 (03:20:00 Z) to 9/14/2021 (00:00:01 Z)
Previous Next [ Day | 3-Days | 7-Days ]
First Last
Prev [ Day | 3-Days | 7-Days ] Next
First Last

Start Time:     :
End Time:     :     
Time (in GMT) :00 :50 :40 :30 :20 :10
Previous Next [ Day | 3-Days | 7-Days ]
First Last
Prev [ Day | 3-Days | 7-Days ] Next
First Last


123 => good data
MM => data is determined as missing
-- => data not received/configured
Back to Top Back to Top
9/15/2021 04:00 to 3:10 -- -- -- -- 5.15999 5.15884
9/15/2021 03:00 to 2:10 5.15503 5.15367 5.15260 5.15180 5.15147 5.15166
9/15/2021 02:00 to 1:10 5.15182 5.15282 5.15132 5.14981 5.15002 5.14830
9/15/2021 01:00 to 0:10 5.14749 5.14832 5.14679 5.14600 5.14577 5.14538
9/15/2021 00:00 to 23:10 5.14774 5.15097 5.15071 5.14883 5.15218 5.15051
9/14/2021 23:00 to 22:10 5.15387 5.14876 5.15136 5.15714 5.16326 5.15824
9/14/2021 22:00 to 21:10 5.15741 5.15583 5.15835 5.15316 5.15548 5.16068
9/14/2021 21:00 to 20:10 5.15416 5.16094 5.15193 5.15489 5.15566 5.14932
9/14/2021 20:00 to 19:10 5.15249 5.15166 5.14939 5.15005 5.14609 5.14791
9/14/2021 19:00 to 18:10 5.14771 5.14240 5.13982 5.14014 5.13855 5.14033
9/14/2021 18:00 to 17:10 5.13704 5.13580 5.13533 5.13795 5.13774 5.13745
9/14/2021 17:00 to 16:10 5.13826 5.13829 5.13835 5.13744 5.13816 5.13946
9/14/2021 16:00 to 15:10 5.13768 5.13775 5.13627 5.13754 5.13725 5.13743
9/14/2021 15:00 to 14:10 5.13672 5.13422 5.13224 5.13221 5.13244 5.13221
9/14/2021 14:00 to 13:10 5.13238 5.13358 5.13382 5.13411 5.13410 5.13393
9/14/2021 13:00 to 12:10 5.13393 5.13451 5.13451 5.13543 5.13582 5.13860
9/14/2021 12:00 to 11:10 5.13875 5.13933 5.14077 5.14085 5.13994 5.13973
9/14/2021 11:00 to 10:10 5.13995 5.13923 5.13947 5.13852 5.13851 5.13662
9/14/2021 10:00 to 9:10 5.13627 5.13528 5.13559 5.13496 5.13481 5.13576
9/14/2021 09:00 to 8:10 5.13625 5.13680 5.13637 5.13644 5.13790 5.13835
9/14/2021 08:00 to 7:10 5.14046 5.14220 5.14324 5.14370 5.14689 5.14833
9/14/2021 07:00 to 6:10 5.14987 5.15104 5.15118 5.15176 5.15074 5.15118
9/14/2021 06:00 to 5:10 5.15225 5.15353 5.15426 5.15421 5.15576 5.15687
9/14/2021 05:00 to 4:10 5.15776 5.15746 5.15748 5.15631 5.15509 5.15307
9/14/2021 04:00 to 3:10 5.15559 5.15590 5.15846 5.15975 5.16272 5.16563
9/14/2021 03:00 to 2:10 5.15861 5.16018 5.16359 5.16525 5.15933 5.15729
9/14/2021 02:00 to 1:10 5.15786 5.15581 5.15707 5.15510 5.15193 5.15302
9/14/2021 01:00 to 0:10 5.15738 5.15870 5.15687 5.15901 5.15645 5.15622

 

 

 

Salinity [psu]     6 entries per hour
Showing data from 9/15/2021 (03:20:00 Z) to 9/14/2021 (00:00:01 Z)
Previous Next [ Day | 3-Days | 7-Days ]
First Last
Prev [ Day | 3-Days | 7-Days ] Next
First Last

Start Time:     :
End Time:     :     
Time (in GMT) :00 :50 :40 :30 :20 :10
Previous Next [ Day | 3-Days | 7-Days ]
First Last
Prev [ Day | 3-Days | 7-Days ] Next
First Last


123 => good data
MM => data is determined as missing
-- => data not received/configured
Back to Top Back to Top
9/15/2021 04:00 to 3:10 -- -- -- -- 35.02 35.03
9/15/2021 03:00 to 2:10 35.00 35.00 34.99 34.99 34.99 34.99
9/15/2021 02:00 to 1:10 34.99 34.99 34.98 34.98 34.98 34.98
9/15/2021 01:00 to 0:10 34.97 34.97 34.97 34.97 34.97 34.97
9/15/2021 00:00 to 23:10 34.97 34.98 34.97 34.97 34.97 34.98
9/14/2021 23:00 to 22:10 34.98 34.97 34.98 34.98 34.99 34.98
9/14/2021 22:00 to 21:10 34.98 34.98 34.98 34.98 34.98 34.98
9/14/2021 21:00 to 20:10 34.98 34.98 34.98 34.98 34.98 34.97
9/14/2021 20:00 to 19:10 34.98 34.98 34.98 34.98 34.98 34.98
9/14/2021 19:00 to 18:10 34.98 34.97 34.97 34.97 34.97 34.97
9/14/2021 18:00 to 17:10 34.98 34.97 34.97 34.97 34.97 34.97
9/14/2021 17:00 to 16:10 34.98 34.98 34.98 34.98 34.98 34.98
9/14/2021 16:00 to 15:10 34.98 34.98 34.97 34.98 34.97 34.98
9/14/2021 15:00 to 14:10 34.97 34.97 34.97 34.97 34.97 34.97
9/14/2021 14:00 to 13:10 34.97 34.97 34.97 34.97 34.97 34.97
9/14/2021 13:00 to 12:10 34.97 34.97 34.97 34.97 34.97 34.97
9/14/2021 12:00 to 11:10 34.97 34.97 34.97 34.97 34.97 34.97
9/14/2021 11:00 to 10:10 34.97 34.97 34.97 34.97 34.97 34.96
9/14/2021 10:00 to 9:10 34.96 34.96 34.96 34.96 34.96 34.96
9/14/2021 09:00 to 8:10 34.96 34.96 34.96 34.96 34.96 34.96
9/14/2021 08:00 to 7:10 34.96 34.96 34.97 34.97 34.97 34.97
9/14/2021 07:00 to 6:10 34.97 34.98 34.97 34.97 34.97 34.97
9/14/2021 06:00 to 5:10 34.97 34.97 34.98 34.98 34.98 34.98
9/14/2021 05:00 to 4:10 34.98 34.98 34.98 34.97 34.97 34.97
9/14/2021 04:00 to 3:10 34.97 34.97 34.97 34.97 34.98 34.98
9/14/2021 03:00 to 2:10 34.97 34.97 34.97 34.96 34.96 34.95
9/14/2021 02:00 to 1:10 34.95 34.94 34.94 34.93 34.93 34.93
9/14/2021 01:00 to 0:10 34.93 34.93 34.93 34.93 34.92 34.93